Time;durP1;ratioP1;P1;durP2;ratioP2;P2;SDS_P1;SDS_P2;PMS_P1;PMS_P2;Temp;Humidity;BMP_temperature;BMP_pressure;BME280_temperature;BME280_humidity;BME280_pressure;Samples;Min_cycle;Max_cycle;Signal;HPM_P1;HPM_P2
2022/12/18 00:01:23;;;;;;;64.03;29.50;;;;;;;;;;5139309;27;20047;-60
2022/12/18 00:03:49;;;;;;;60.65;29.33;;;;;;;;;;5140672;27;20175;-60
2022/12/18 00:06:15;;;;;;;60.55;27.23;;;;;;;;;;5140028;27;20035;-60
2022/12/18 00:08:42;;;;;;;57.97;25.50;;;;;;;;;;5138009;27;20050;-60
2022/12/18 00:11:10;;;;;;;62.70;27.35;;;;;;;;;;5134465;27;20043;-60
2022/12/18 00:13:36;;;;;;;59.40;26.95;;;;;;;;;;5137326;27;20039;-60
2022/12/18 00:16:06;;;;;;;60.70;28.63;;;;;;;;;;5134559;27;20049;-60
2022/12/18 00:18:33;;;;;;;56.38;24.73;;;;;;;;;;5135625;27;20054;-61
2022/12/18 00:21:00;;;;;;;58.67;26.15;;;;;;;;;;5137036;27;20073;-61
2022/12/18 00:23:26;;;;;;;61.22;27.17;;;;;;;;;;5135100;27;20528;-60
2022/12/18 00:25:52;;;;;;;63.30;26.60;;;;;;;;;;5141279;27;20035;-61
2022/12/18 00:28:18;;;;;;;59.78;27.85;;;;;;;;;;5137130;27;20443;-61
2022/12/18 00:30:44;;;;;;;52.22;23.58;;;;;;;;;;5137584;27;20046;-59
2022/12/18 00:33:10;;;;;;;62.75;26.88;;;;;;;;;;5140553;27;20046;-59
2022/12/18 00:35:36;;;;;;;64.20;27.10;;;;;;;;;;5137408;27;20043;-59
2022/12/18 00:38:02;;;;;;;55.00;24.42;;;;;;;;;;5133640;27;20130;-59
2022/12/18 00:40:28;;;;;;;56.55;24.17;;;;;;;;;;5138035;27;20464;-59
2022/12/18 00:42:57;;;;;;;57.40;25.10;;;;;;;;;;5137615;27;20047;-59
2022/12/18 00:45:25;;;;;;;54.22;23.70;;;;;;;;;;5133077;27;20520;-59
2022/12/18 00:47:51;;;;;;;51.85;22.88;;;;;;;;;;5137070;27;20035;-59
2022/12/18 00:50:17;;;;;;;65.15;28.17;;;;;;;;;;5139753;27;20525;-59
2022/12/18 00:52:43;;;;;;;56.38;25.98;;;;;;;;;;5138530;27;20254;-59
2022/12/18 00:55:09;;;;;;;61.15;25.48;;;;;;;;;;5140432;27;20043;-59
2022/12/18 00:57:35;;;;;;;61.20;25.92;;;;;;;;;;5137432;27;20031;-59
2022/12/18 01:00:01;;;;;;;53.75;23.75;;;;;;;;;;5137979;27;20050;-59
2022/12/18 01:02:27;;;;;;;59.47;24.48;;;;;;;;;;5134126;27;20091;-58
2022/12/18 01:04:53;;;;;;;60.10;25.27;;;;;;;;;;5133250;27;20043;-59
2022/12/18 01:07:19;;;;;;;46.85;22.33;;;;;;;;;;5137057;27;20042;-59
2022/12/18 01:09:45;;;;;;;50.28;21.45;;;;;;;;;;5139677;27;20402;-59
2022/12/18 01:12:11;;;;;;;50.80;21.77;;;;;;;;;;5133402;27;20078;-59
2022/12/18 01:14:38;;;;;;;48.45;21.65;;;;;;;;;;5132673;27;20142;-59
2022/12/18 01:17:04;;;;;;;51.97;20.80;;;;;;;;;;5137160;27;20117;-59
2022/12/18 01:19:30;;;;;;;48.17;20.75;;;;;;;;;;5132496;27;20042;-59
2022/12/18 01:21:56;;;;;;;50.67;21.85;;;;;;;;;;5140770;27;20374;-59
2022/12/18 01:24:22;;;;;;;47.72;21.95;;;;;;;;;;5137870;27;20133;-59
2022/12/18 01:26:48;;;;;;;43.00;18.70;;;;;;;;;;5130705;27;20042;-59
2022/12/18 01:29:14;;;;;;;51.10;21.65;;;;;;;;;;5132764;27;20570;-59
2022/12/18 01:31:40;;;;;;;53.65;20.77;;;;;;;;;;5132640;27;20035;-59
2022/12/18 01:34:06;;;;;;;47.63;21.33;;;;;;;;;;5131900;27;20046;-59
2022/12/18 01:36:36;;;;;;;49.00;20.80;;;;;;;;;;5141120;27;20099;-59
2022/12/18 01:39:04;;;;;;;43.28;18.92;;;;;;;;;;5136836;27;20049;-59
2022/12/18 01:44:35;;;;;;;49.63;21.17;;;;;;;;;;5139622;27;20062;-59
2022/12/18 01:47:01;;;;;;;54.42;22.42;;;;;;;;;;5135095;27;20539;-61
2022/12/18 01:49:27;;;;;;;52.97;24.20;;;;;;;;;;5135009;27;20039;-60
2022/12/18 01:51:52;;;;;;;47.72;20.75;;;;;;;;;;5137551;27;20401;-61
2022/12/18 01:54:19;;;;;;;41.60;17.13;;;;;;;;;;5131080;27;20047;-60
2022/12/18 01:56:45;;;;;;;39.67;17.90;;;;;;;;;;5118792;27;20043;-60
2022/12/18 01:59:12;;;;;;;39.33;17.92;;;;;;;;;;5131053;27;20326;-59
2022/12/18 02:01:38;;;;;;;39.72;17.70;;;;;;;;;;5141065;27;20042;-59
2022/12/18 02:04:23;;;;;;;36.22;17.00;;;;;;;;;;5142621;27;20038;-59
2022/12/18 02:06:58;;;;;;;35.70;15.38;;;;;;;;;;5132829;27;20038;-59
2022/12/18 02:09:30;;;;;;;32.45;15.77;;;;;;;;;;5131599;27;20051;-59
2022/12/18 02:12:02;;;;;;;37.15;16.30;;;;;;;;;;5139499;27;20461;-59
2022/12/18 02:14:47;;;;;;;35.38;14.45;;;;;;;;;;5137280;27;20054;-58
2022/12/18 02:17:21;;;;;;;36.15;15.68;;;;;;;;;;5137700;27;20071;-58
2022/12/18 02:19:47;;;;;;;42.58;18.15;;;;;;;;;;5138575;27;20039;-60
2022/12/18 02:22:16;;;;;;;44.78;17.48;;;;;;;;;;5134786;27;20043;-61
2022/12/18 02:24:50;;;;;;;38.17;17.58;;;;;;;;;;5134742;27;20051;-61
2022/12/18 02:27:16;;;;;;;41.63;18.55;;;;;;;;;;5140737;27;20042;-60
2022/12/18 02:29:47;;;;;;;39.33;17.75;;;;;;;;;;5137080;27;20077;-59
2022/12/18 02:32:15;;;;;;;38.03;17.58;;;;;;;;;;5128919;27;20114;-60
2022/12/18 02:34:41;;;;;;;33.92;15.15;;;;;;;;;;5130973;27;20162;-60
2022/12/18 02:37:09;;;;;;;35.40;16.13;;;;;;;;;;5136078;27;20057;-61
2022/12/18 02:39:37;;;;;;;31.23;14.30;;;;;;;;;;5138465;27;20039;-61
2022/12/18 02:42:07;;;;;;;35.22;16.15;;;;;;;;;;5140749;27;20070;-61
2022/12/18 02:44:33;;;;;;;38.40;16.60;;;;;;;;;;5137835;27;20058;-61
2022/12/18 02:46:59;;;;;;;39.97;17.58;;;;;;;;;;5134734;27;20205;-60
2022/12/18 02:49:28;;;;;;;35.35;15.70;;;;;;;;;;5129635;27;20131;-61
2022/12/18 02:51:58;;;;;;;43.70;18.38;;;;;;;;;;5140602;27;20038;-60
2022/12/18 02:54:30;;;;;;;37.75;17.02;;;;;;;;;;5132577;27;20052;-61
2022/12/18 02:56:58;;;;;;;49.17;19.67;;;;;;;;;;5131187;27;20533;-61
2022/12/18 02:59:30;;;;;;;50.45;22.17;;;;;;;;;;5130863;27;20038;-61
2022/12/18 03:01:59;;;;;;;50.50;22.13;;;;;;;;;;5135608;27;20049;-61
2022/12/18 03:04:31;;;;;;;51.65;22.58;;;;;;;;;;5134146;27;20103;-61
2022/12/18 03:07:02;;;;;;;35.97;14.70;;;;;;;;;;5122860;27;20035;-60
2022/12/18 03:09:32;;;;;;;50.63;20.17;;;;;;;;;;5127647;27;20082;-61
2022/12/18 03:14:45;;;;;;;48.85;19.63;;;;;;;;;;5134903;27;20043;-60
2022/12/18 03:17:13;;;;;;;42.08;18.23;;;;;;;;;;5132527;27;20481;-60
2022/12/18 03:19:40;;;;;;;38.70;18.98;;;;;;;;;;5129312;27;20027;-60
2022/12/18 03:22:08;;;;;;;49.63;19.15;;;;;;;;;;5119331;27;20046;-61
2022/12/18 03:24:38;;;;;;;39.33;17.10;;;;;;;;;;5131992;27;20095;-60
2022/12/18 03:27:06;;;;;;;47.05;19.55;;;;;;;;;;5134588;27;20481;-60
2022/12/18 03:29:48;;;;;;;43.97;18.65;;;;;;;;;;5133637;27;20054;-60
2022/12/18 03:32:33;;;;;;;41.05;19.60;;;;;;;;;;5133225;27;20034;-61
2022/12/18 03:35:01;;;;;;;43.03;19.77;;;;;;;;;;5133625;27;20216;-61
2022/12/18 03:37:30;;;;;;;50.05;20.23;;;;;;;;;;5129058;27;20043;-61
2022/12/18 03:39:56;;;;;;;45.45;20.35;;;;;;;;;;5131201;27;20154;-60
2022/12/18 03:42:28;;;;;;;42.13;17.83;;;;;;;;;;5134390;27;20043;-61
2022/12/18 03:44:57;;;;;;;40.42;19.00;;;;;;;;;;5134474;27;20068;-60
2022/12/18 03:47:34;;;;;;;41.03;17.15;;;;;;;;;;5130033;27;20066;-60
2022/12/18 03:50:13;;;;;;;39.58;16.98;;;;;;;;;;5107338;27;20057;-61
2022/12/18 03:52:46;;;;;;;42.17;17.38;;;;;;;;;;5134303;27;20047;-61
2022/12/18 03:55:12;;;;;;;39.80;17.20;;;;;;;;;;5130969;27;20471;-60
2022/12/18 03:57:39;;;;;;;36.28;17.67;;;;;;;;;;5132498;27;20047;-61
2022/12/18 04:00:07;;;;;;;32.35;14.52;;;;;;;;;;5138688;27;20043;-60
2022/12/18 04:02:34;;;;;;;30.45;14.48;;;;;;;;;;5127830;27;20034;-60
2022/12/18 04:05:04;;;;;;;34.03;14.38;;;;;;;;;;5121396;27;20501;-61
2022/12/18 04:07:30;;;;;;;35.97;16.02;;;;;;;;;;5130291;27;20049;-61
2022/12/18 04:09:57;;;;;;;40.75;17.13;;;;;;;;;;5134804;27;20078;-60
2022/12/18 04:12:27;;;;;;;37.60;17.10;;;;;;;;;;5109110;27;20047;-61
2022/12/18 04:14:53;;;;;;;34.85;15.75;;;;;;;;;;5130866;27;20031;-61
2022/12/18 04:17:19;;;;;;;35.85;15.60;;;;;;;;;;5131525;27;20361;-60
2022/12/18 04:19:45;;;;;;;37.15;15.55;;;;;;;;;;5134827;27;20039;-60
2022/12/18 04:22:11;;;;;;;30.27;14.02;;;;;;;;;;5127514;27;20115;-61
2022/12/18 04:24:37;;;;;;;31.33;14.95;;;;;;;;;;5126722;27;20517;-61
2022/12/18 04:27:03;;;;;;;33.40;15.05;;;;;;;;;;5130396;27;20042;-61
2022/12/18 04:29:29;;;;;;;33.35;15.13;;;;;;;;;;5112539;27;20429;-60
2022/12/18 04:31:55;;;;;;;35.42;15.30;;;;;;;;;;5135321;27;20035;-61
2022/12/18 04:34:21;;;;;;;35.85;15.55;;;;;;;;;;5137301;27;20046;-60
2022/12/18 04:36:47;;;;;;;33.72;15.18;;;;;;;;;;5137998;27;20435;-61
2022/12/18 04:39:14;;;;;;;34.60;15.95;;;;;;;;;;5136738;27;20500;-60
2022/12/18 04:41:41;;;;;;;37.65;17.00;;;;;;;;;;5136741;27;20572;-60
2022/12/18 04:44:07;;;;;;;38.55;16.35;;;;;;;;;;5136909;27;20498;-61
2022/12/18 04:46:33;;;;;;;38.13;16.50;;;;;;;;;;5135007;27;20517;-61
2022/12/18 04:48:59;;;;;;;40.47;17.08;;;;;;;;;;5137169;27;20046;-60
2022/12/18 04:51:24;;;;;;;38.75;18.67;;;;;;;;;;5133945;27;20039;-61
2022/12/18 04:53:50;;;;;;;40.63;18.73;;;;;;;;;;5135232;27;20497;-60
2022/12/18 04:56:17;;;;;;;43.22;19.05;;;;;;;;;;5136161;27;20084;-60
2022/12/18 04:58:43;;;;;;;38.58;17.42;;;;;;;;;;5138003;27;20050;-60
2022/12/18 05:01:10;;;;;;;41.10;18.52;;;;;;;;;;5135350;27;20046;-60
2022/12/18 05:03:36;;;;;;;39.60;17.70;;;;;;;;;;5134189;27;20118;-60
2022/12/18 05:06:02;;;;;;;42.22;18.95;;;;;;;;;;5138614;27;20054;-60
2022/12/18 05:08:28;;;;;;;44.50;19.48;;;;;;;;;;5137522;27;20751;-60
2022/12/18 05:11:09;;;;;;;48.20;20.45;;;;;;;;;;5137438;27;20394;-60
2022/12/18 05:13:35;;;;;;;40.92;17.00;;;;;;;;;;5137658;27;20050;-60
2022/12/18 05:16:01;;;;;;;38.00;17.17;;;;;;;;;;5141006;27;20053;-60
2022/12/18 05:18:27;;;;;;;36.50;17.35;;;;;;;;;;5131376;27;20039;-59
2022/12/18 05:20:54;;;;;;;41.67;17.38;;;;;;;;;;5136925;27;20039;-60
2022/12/18 05:23:21;;;;;;;33.50;16.30;;;;;;;;;;5133757;27;20050;-60
2022/12/18 05:25:54;;;;;;;33.00;15.15;;;;;;;;;;5114904;27;20130;-60
2022/12/18 05:28:21;;;;;;;33.22;14.20;;;;;;;;;;5135379;27;20391;-60
2022/12/18 05:30:50;;;;;;;31.65;15.00;;;;;;;;;;5136514;27;20467;-60
2022/12/18 05:33:16;;;;;;;33.28;15.05;;;;;;;;;;5136255;27;20047;-59
2022/12/18 05:35:42;;;;;;;34.78;14.30;;;;;;;;;;5133264;27;20039;-60
2022/12/18 05:38:08;;;;;;;36.03;16.02;;;;;;;;;;5136956;27;20129;-60
2022/12/18 05:40:34;;;;;;;36.63;14.77;;;;;;;;;;5135443;27;20405;-60
2022/12/18 05:43:00;;;;;;;36.80;15.98;;;;;;;;;;5134863;27;20046;-60
2022/12/18 05:45:26;;;;;;;29.27;13.85;;;;;;;;;;5135021;27;20043;-60
2022/12/18 05:47:52;;;;;;;31.52;13.98;;;;;;;;;;5133592;27;20077;-60
2022/12/18 05:50:18;;;;;;;29.80;13.27;;;;;;;;;;5112594;27;20071;-60
2022/12/18 05:52:44;;;;;;;22.83;11.68;;;;;;;;;;5137455;27;20045;-60
2022/12/18 05:55:10;;;;;;;23.65;10.77;;;;;;;;;;5133139;27;20039;-60
2022/12/18 05:57:36;;;;;;;24.27;11.60;;;;;;;;;;5129335;27;20508;-60
2022/12/18 06:00:03;;;;;;;32.10;13.63;;;;;;;;;;5134939;27;20043;-60
2022/12/18 06:02:29;;;;;;;30.08;13.52;;;;;;;;;;5133306;27;20169;-59
2022/12/18 06:04:55;;;;;;;29.40;13.20;;;;;;;;;;5134054;27;20150;-60
2022/12/18 06:07:21;;;;;;;29.08;14.65;;;;;;;;;;5136944;27;20042;-60
2022/12/18 06:09:47;;;;;;;29.08;12.32;;;;;;;;;;5132033;27;20047;-60
2022/12/18 06:12:13;;;;;;;29.33;14.10;;;;;;;;;;5134203;27;20421;-61
2022/12/18 06:14:39;;;;;;;30.45;13.00;;;;;;;;;;5133935;27;20365;-60
2022/12/18 06:17:05;;;;;;;31.67;13.93;;;;;;;;;;5135674;27;20043;-60
2022/12/18 06:19:31;;;;;;;29.27;13.48;;;;;;;;;;5133502;27;20038;-60
2022/12/18 06:21:58;;;;;;;30.20;13.95;;;;;;;;;;5134066;27;20043;-59
2022/12/18 06:24:24;;;;;;;24.73;12.70;;;;;;;;;;5133780;27;20043;-60
2022/12/18 06:26:50;;;;;;;25.73;11.93;;;;;;;;;;5134517;27;20050;-60
2022/12/18 06:29:16;;;;;;;27.10;13.27;;;;;;;;;;5137581;27;20087;-60
2022/12/18 06:31:42;;;;;;;28.20;13.13;;;;;;;;;;5135874;27;20096;-60
2022/12/18 06:34:08;;;;;;;28.85;14.18;;;;;;;;;;5131866;27;20464;-60
2022/12/18 06:36:34;;;;;;;33.58;13.85;;;;;;;;;;5132384;27;20034;-60
2022/12/18 06:39:00;;;;;;;31.35;14.82;;;;;;;;;;5134148;27;20077;-60
2022/12/18 06:41:26;;;;;;;30.92;13.77;;;;;;;;;;5133256;27;20046;-59
2022/12/18 06:43:52;;;;;;;30.50;13.60;;;;;;;;;;5133315;27;20571;-60
2022/12/18 06:46:18;;;;;;;30.73;13.25;;;;;;;;;;5132464;27;20451;-60
2022/12/18 06:48:48;;;;;;;30.75;14.25;;;;;;;;;;5133956;27;20489;-60
2022/12/18 06:51:16;;;;;;;29.65;12.35;;;;;;;;;;5115810;27;20031;-60
2022/12/18 06:53:42;;;;;;;28.67;12.10;;;;;;;;;;5132043;27;20226;-60
2022/12/18 06:56:08;;;;;;;26.20;11.88;;;;;;;;;;5133896;27;20042;-60
2022/12/18 06:58:34;;;;;;;26.83;13.07;;;;;;;;;;5130462;27;20045;-60
2022/12/18 07:01:04;;;;;;;32.72;14.90;;;;;;;;;;5133630;27;20122;-60
2022/12/18 07:03:30;;;;;;;28.02;12.57;;;;;;;;;;5133817;27;20046;-60
2022/12/18 07:05:56;;;;;;;29.98;13.13;;;;;;;;;;5133475;27;20072;-59
2022/12/18 07:08:22;;;;;;;32.50;14.25;;;;;;;;;;5133006;27;20063;-60
2022/12/18 07:10:49;;;;;;;31.95;13.88;;;;;;;;;;5137500;27;20046;-60
2022/12/18 07:13:15;;;;;;;31.02;13.48;;;;;;;;;;5133637;27;20045;-60
2022/12/18 07:15:42;;;;;;;30.63;14.00;;;;;;;;;;5132958;27;20038;-60
2022/12/18 07:18:07;;;;;;;31.83;13.80;;;;;;;;;;5132048;27;20042;-60
2022/12/18 07:20:34;;;;;;;24.40;11.77;;;;;;;;;;5115445;27;20629;-60
2022/12/18 07:23:02;;;;;;;26.08;11.18;;;;;;;;;;5134765;27;20236;-60
2022/12/18 07:25:28;;;;;;;26.48;13.35;;;;;;;;;;5130925;27;20047;-60
2022/12/18 07:27:54;;;;;;;24.02;11.88;;;;;;;;;;5134090;27;20034;-60
2022/12/18 07:30:20;;;;;;;29.42;13.43;;;;;;;;;;5136064;27;20050;-60
2022/12/18 07:32:46;;;;;;;24.02;11.55;;;;;;;;;;5132857;27;20036;-60
2022/12/18 07:35:12;;;;;;;25.63;13.18;;;;;;;;;;5136386;27;20398;-60
2022/12/18 07:37:38;;;;;;;27.88;13.27;;;;;;;;;;5133069;27;20046;-59
2022/12/18 07:40:04;;;;;;;27.33;11.65;;;;;;;;;;5133983;27;20500;-60
2022/12/18 07:42:30;;;;;;;23.98;11.20;;;;;;;;;;5131351;27;20130;-60
2022/12/18 07:44:57;;;;;;;22.17;10.35;;;;;;;;;;5132416;27;20114;-60
2022/12/18 07:47:23;;;;;;;25.50;12.27;;;;;;;;;;5130757;27;20054;-60
2022/12/18 07:49:49;;;;;;;22.92;11.52;;;;;;;;;;5134928;27;20034;-60
2022/12/18 07:52:15;;;;;;;24.33;11.57;;;;;;;;;;5135523;27;20133;-60
2022/12/18 07:54:41;;;;;;;28.10;11.95;;;;;;;;;;5132467;27;20035;-60
2022/12/18 07:57:08;;;;;;;27.63;12.00;;;;;;;;;;5134102;27;20050;-60
2022/12/18 07:59:34;;;;;;;22.65;11.02;;;;;;;;;;5114877;27;20042;-60
2022/12/18 08:02:00;;;;;;;27.60;12.95;;;;;;;;;;5134088;27;20067;-59
2022/12/18 08:04:26;;;;;;;24.58;12.65;;;;;;;;;;5130644;27;20079;-59
2022/12/18 08:06:53;;;;;;;25.80;13.52;;;;;;;;;;5132565;27;20051;-60
2022/12/18 08:09:19;;;;;;;23.45;12.10;;;;;;;;;;5135100;27;20058;-60
2022/12/18 08:11:45;;;;;;;24.17;12.25;;;;;;;;;;5138511;27;20098;-60
2022/12/18 08:14:11;;;;;;;24.20;12.15;;;;;;;;;;5136501;27;20026;-60
2022/12/18 08:16:37;;;;;;;28.10;12.00;;;;;;;;;;5138567;27;20043;-60
2022/12/18 08:19:03;;;;;;;19.63;9.85;;;;;;;;;;5119734;27;20521;-60
2022/12/18 08:21:30;;;;;;;24.88;11.68;;;;;;;;;;5132469;27;20051;-60
2022/12/18 08:23:57;;;;;;;23.55;11.70;;;;;;;;;;5135435;27;20749;-60
2022/12/18 08:26:23;;;;;;;23.98;12.23;;;;;;;;;;5132934;27;20051;-60
2022/12/18 08:28:50;;;;;;;24.42;12.20;;;;;;;;;;5133486;27;20090;-60
2022/12/18 08:31:16;;;;;;;21.02;11.05;;;;;;;;;;5134660;27;20039;-60
2022/12/18 08:33:43;;;;;;;21.33;10.43;;;;;;;;;;5133908;27;20043;-60
2022/12/18 08:36:10;;;;;;;18.58;10.65;;;;;;;;;;5137398;27;20137;-60
2022/12/18 08:38:36;;;;;;;20.95;10.90;;;;;;;;;;5132872;27;20095;-60
2022/12/18 08:41:02;;;;;;;20.25;10.95;;;;;;;;;;5132507;27;20039;-60
2022/12/18 08:46:16;;;;;;;21.17;10.55;;;;;;;;;;5132652;27;20046;-60
2022/12/18 08:48:42;;;;;;;17.20;9.85;;;;;;;;;;5136781;27;20133;-60
2022/12/18 08:51:11;;;;;;;21.55;9.98;;;;;;;;;;5121203;27;20082;-60
2022/12/18 08:53:37;;;;;;;22.65;11.10;;;;;;;;;;5138683;27;20115;-60
2022/12/18 08:56:03;;;;;;;21.00;10.75;;;;;;;;;;5134373;27;20073;-60
2022/12/18 08:58:29;;;;;;;23.20;10.98;;;;;;;;;;5135130;27;20054;-60
2022/12/18 09:01:00;;;;;;;21.48;11.70;;;;;;;;;;5131588;27;20031;-60
2022/12/18 09:03:26;;;;;;;17.75;9.95;;;;;;;;;;5135342;27;20505;-60
2022/12/18 09:05:52;;;;;;;16.15;10.80;;;;;;;;;;5138133;27;20043;-60
2022/12/18 09:08:18;;;;;;;21.65;10.73;;;;;;;;;;5137498;27;20063;-59
2022/12/18 09:10:45;;;;;;;17.98;10.52;;;;;;;;;;5131008;27;20110;-60
2022/12/18 09:13:12;;;;;;;18.80;10.57;;;;;;;;;;5134311;27;20065;-60
2022/12/18 09:15:45;;;;;;;21.40;11.43;;;;;;;;;;5128247;27;20043;-59
2022/12/18 09:18:12;;;;;;;21.60;12.05;;;;;;;;;;5135594;27;20038;-60
2022/12/18 09:20:38;;;;;;;19.52;10.82;;;;;;;;;;5135921;27;20042;-60
2022/12/18 09:23:05;;;;;;;18.45;11.38;;;;;;;;;;5134165;27;20495;-60
2022/12/18 09:25:35;;;;;;;19.70;10.98;;;;;;;;;;5137078;27;20043;-60
2022/12/18 09:28:02;;;;;;;22.60;11.98;;;;;;;;;;5134477;27;20047;-60
2022/12/18 09:30:28;;;;;;;24.95;13.43;;;;;;;;;;5133301;27;20039;-60
2022/12/18 09:32:54;;;;;;;24.33;12.77;;;;;;;;;;5134177;27;20116;-59
2022/12/18 09:35:20;;;;;;;27.30;12.15;;;;;;;;;;5136481;27;20043;-60
2022/12/18 09:37:46;;;;;;;25.98;14.15;;;;;;;;;;5132812;27;20418;-60
2022/12/18 09:40:16;;;;;;;21.73;12.27;;;;;;;;;;5134259;27;20041;-60
2022/12/18 09:42:46;;;;;;;24.95;12.20;;;;;;;;;;5116552;27;20051;-60
2022/12/18 09:45:14;;;;;;;23.23;13.13;;;;;;;;;;5129168;27;20035;-60
2022/12/18 09:47:41;;;;;;;23.00;12.50;;;;;;;;;;5131438;27;20082;-60
2022/12/18 09:50:29;;;;;;;20.40;12.68;;;;;;;;;;5133211;27;20045;-59
2022/12/18 09:52:56;;;;;;;23.95;12.63;;;;;;;;;;5136626;27;20046;-59
2022/12/18 09:55:28;;;;;;;18.05;11.27;;;;;;;;;;5132571;27;20122;-60
2022/12/18 09:58:01;;;;;;;19.90;11.10;;;;;;;;;;5131610;27;20046;-59
2022/12/18 10:00:27;;;;;;;22.13;12.25;;;;;;;;;;5129629;27;20050;-59
2022/12/18 10:02:56;;;;;;;16.85;10.60;;;;;;;;;;5136792;27;20069;-53
2022/12/18 10:05:34;;;;;;;20.98;10.88;;;;;;;;;;5109434;27;20047;-58
2022/12/18 10:08:12;;;;;;;18.15;10.50;;;;;;;;;;5126971;27;20059;-59
2022/12/18 10:10:38;;;;;;;;;;;;;;;;;;5130362;27;20058;-59
2022/12/18 10:13:04;;;;;;;;;;;;;;;;;;5133526;27;19946;-60
2022/12/18 10:15:30;;;;;;;;;;;;;;;;;;5135651;27;19923;-60
2022/12/18 10:17:56;;;;;;;;;;;;;;;;;;5132536;27;20391;-60
2022/12/18 10:20:22;;;;;;;;;;;;;;;;;;5136265;27;19919;-60
2022/12/18 10:22:48;;;;;;;;;;;;;;;;;;5135938;27;19966;-62
2022/12/18 10:25:14;;;;;;;;;;;;;;;;;;5117457;27;20038;-63
2022/12/18 10:27:39;;;;;;;;;;;;;;;;;;5126938;27;19924;-61
2022/12/18 10:30:05;;;;;;;;;;;;;;;;;;5126854;27;19923;-61
2022/12/18 10:32:31;;;;;;;;;;;;;;;;;;5127801;27;20006;-61
2022/12/18 10:34:57;;;;;;;;;;;;;;;;;;5127279;27;19927;-61
2022/12/18 10:37:23;;;;;;;;;;;;;;;;;;5127588;27;19982;-61
2022/12/18 10:39:49;;;;;;;;;;;;;;;;;;5126341;27;19930;-61
2022/12/18 10:42:15;;;;;;;;;;;;;;;;;;5127020;27;19923;-61
2022/12/18 10:44:41;;;;;;;;;;;;;;;;;;5127875;27;19919;-62
2022/12/18 10:47:07;;;;;;;;;;;;;;;;;;5127934;27;19976;-62
2022/12/18 10:49:33;;;;;;;;;;;;;;;;;;5108415;27;19939;-61
2022/12/18 10:51:58;;;;;;;;;;;;;;;;;;5127661;27;19920;-61
2022/12/18 10:54:24;;;;;;;;;;;;;;;;;;5115368;27;20241;-61
2022/12/18 10:56:50;;;;;;;;;;;;;;;;;;5146473;27;19940;-62
2022/12/18 10:59:16;;;;;;;;;;;;;;;;;;5147909;27;19919;-61
2022/12/18 11:01:42;;;;;;;;;;;;;;;;;;5148049;27;19923;-61
2022/12/18 11:04:09;;;;;;;17.35;10.45;;;;;;;;;;5146958;27;19975;-61
2022/12/18 11:06:52;;;;;;;16.50;10.38;;;;;;;;;;5147201;27;20481;-61
2022/12/18 11:09:18;;;;;;;;;;;;;;;;;;5143707;27;20387;-62
2022/12/18 11:11:44;;;;;;;;;;;;;;;;;;5142516;27;20009;-61
2022/12/18 11:14:10;;;;;;;;;;;;;;;;;;5126823;27;19923;-62
2022/12/18 11:16:36;;;;;;;;;;;;;;;;;;5127245;27;20335;-62
2022/12/18 11:19:02;;;;;;;;;;;;;;;;;;5107632;27;19919;-61
2022/12/18 11:21:27;;;;;;;;;;;;;;;;;;5138317;27;19919;-62
2022/12/18 11:23:53;;;;;;;;;;;;;;;;;;5146634;27;19923;-61
2022/12/18 11:26:19;;;;;;;;;;;;;;;;;;5147049;27;19933;-61
2022/12/18 11:28:47;;;;;;;12.05;8.18;;;;;;;;;;5147278;27;19933;-61
2022/12/18 11:31:24;;;;;;;12.88;9.10;;;;;;;;;;5145191;27;20563;-61
2022/12/18 11:34:09;;;;;;;10.98;7.70;;;;;;;;;;5138654;27;20488;-62
2022/12/18 11:36:38;;;;;;;12.05;8.15;;;;;;;;;;5131155;27;20516;-61
2022/12/18 11:39:10;;;;;;;11.25;7.78;;;;;;;;;;5106472;27;20047;-61
2022/12/18 11:44:38;;;;;;;12.15;7.65;;;;;;;;;;5126053;27;20051;-60
2022/12/18 11:47:14;;;;;;;12.15;8.48;;;;;;;;;;5108110;27;20043;-60
2022/12/18 11:49:41;;;;;;;10.82;6.63;;;;;;;;;;5128550;27;20134;-60
2022/12/18 11:52:19;;;;;;;11.23;7.18;;;;;;;;;;5141600;27;20045;-60
2022/12/18 11:54:45;;;;;;;12.50;7.50;;;;;;;;;;5139060;27;20039;-61
2022/12/18 11:57:23;;;;;;;11.70;7.85;;;;;;;;;;5127890;27;20050;-60
2022/12/18 11:59:49;;;;;;;11.30;7.63;;;;;;;;;;5136553;27;20042;-60
2022/12/18 12:02:27;;;;;;;8.80;6.40;;;;;;;;;;5130835;27;20374;-60
2022/12/18 12:04:56;;;;;;;12.68;7.43;;;;;;;;;;5125532;28;20043;-60
2022/12/18 12:07:37;;;;;;;11.90;6.85;;;;;;;;;;5125195;27;20051;-61
2022/12/18 12:10:20;;;;;;;8.20;5.90;;;;;;;;;;5107966;28;20062;-61
2022/12/18 12:13:00;;;;;;;11.45;6.78;;;;;;;;;;5128789;27;20129;-60
2022/12/18 12:15:32;;;;;;;9.75;6.45;;;;;;;;;;5134884;27;20046;-60
2022/12/18 12:18:05;;;;;;;6.97;5.10;;;;;;;;;;5126877;27;20039;-60
2022/12/18 12:20:50;;;;;;;8.90;6.15;;;;;;;;;;5124727;28;20439;-60
2022/12/18 12:23:19;;;;;;;8.98;5.90;;;;;;;;;;5128134;27;20075;-60
2022/12/18 12:25:50;;;;;;;8.18;5.32;;;;;;;;;;5125956;27;20043;-60
2022/12/18 12:28:37;;;;;;;8.82;6.07;;;;;;;;;;5136761;27;20070;-60
2022/12/18 12:31:12;;;;;;;8.80;5.97;;;;;;;;;;5146785;27;20438;-60
2022/12/18 12:33:51;;;;;;;7.45;5.30;;;;;;;;;;5130417;27;20063;-60
2022/12/18 12:36:35;;;;;;;7.15;5.25;;;;;;;;;;5125362;28;20043;-60
2022/12/18 12:39:06;;;;;;;9.43;6.38;;;;;;;;;;5126266;28;20118;-60
2022/12/18 12:44:21;;;;;;;9.48;5.45;;;;;;;;;;5133161;27;20043;-60
2022/12/18 12:46:48;;;;;;;8.80;5.13;;;;;;;;;;5139288;27;20129;-59
2022/12/18 12:49:16;;;;;;;7.43;4.93;;;;;;;;;;5140736;27;20074;-60
2022/12/18 12:51:45;;;;;;;8.30;4.97;;;;;;;;;;5129919;27;20040;-60
2022/12/18 12:54:15;;;;;;;6.35;4.55;;;;;;;;;;5133243;27;20039;-59
2022/12/18 12:56:52;;;;;;;9.95;5.78;;;;;;;;;;5137633;27;20039;-60
2022/12/18 12:59:30;;;;;;;7.38;5.00;;;;;;;;;;5136879;27;20689;-59
2022/12/18 13:01:56;;;;;;;8.65;4.55;;;;;;;;;;5142350;27;20054;-59
2022/12/18 13:04:27;;;;;;;7.93;5.07;;;;;;;;;;5129335;27;20039;-60
2022/12/18 13:06:57;;;;;;;6.90;4.70;;;;;;;;;;5130187;27;20078;-59
2022/12/18 13:09:23;;;;;;;10.52;5.93;;;;;;;;;;5129266;27;20081;-59
2022/12/18 13:14:35;;;;;;;5.43;4.68;;;;;;;;;;5144200;27;20061;-59
2022/12/18 13:17:20;;;;;;;6.32;5.03;;;;;;;;;;5140011;27;20507;-60
2022/12/18 13:19:49;;;;;;;9.43;5.38;;;;;;;;;;5112208;27;20050;-59
2022/12/18 13:22:23;;;;;;;8.07;4.55;;;;;;;;;;5136575;27;20039;-60
2022/12/18 13:24:49;;;;;;;7.55;4.57;;;;;;;;;;5133540;27;20055;-59
2022/12/18 13:27:34;;;;;;;6.50;4.43;;;;;;;;;;5140290;27;20061;-60
2022/12/18 13:30:00;;;;;;;6.03;4.65;;;;;;;;;;5145958;27;20047;-59
2022/12/18 13:32:26;;;;;;;6.68;4.70;;;;;;;;;;5145618;27;20091;-59
2022/12/18 13:35:21;;;;;;;8.27;4.68;;;;;;;;;;5139597;27;20413;-60
2022/12/18 13:37:54;;;;;;;6.43;4.97;;;;;;;;;;5116380;27;20910;-60
2022/12/18 13:40:38;;;;;;;6.90;4.75;;;;;;;;;;5128822;27;20075;-59
2022/12/18 13:43:16;;;;;;;5.88;3.95;;;;;;;;;;5129783;27;20047;-60
2022/12/18 13:45:44;;;;;;;6.28;4.07;;;;;;;;;;5137909;27;20074;-59
2022/12/18 13:48:18;;;;;;;4.28;3.78;;;;;;;;;;5135814;27;20062;-59
2022/12/18 13:50:48;;;;;;;6.75;4.75;;;;;;;;;;5131594;27;20151;-59
2022/12/18 13:53:23;;;;;;;7.22;5.03;;;;;;;;;;5142635;27;20078;-59
2022/12/18 13:55:50;;;;;;;4.55;3.70;;;;;;;;;;5143798;27;20468;-59
2022/12/18 13:58:16;;;;;;;5.75;3.80;;;;;;;;;;5129383;27;20090;-59
2022/12/18 14:00:44;;;;;;;5.15;3.83;;;;;;;;;;5093609;27;20097;-59
2022/12/18 14:03:21;;;;;;;5.18;3.47;;;;;;;;;;5130093;27;20085;-61
2022/12/18 14:05:53;;;;;;;4.57;3.50;;;;;;;;;;5127125;27;20618;-60
2022/12/18 14:08:19;;;;;;;4.80;3.25;;;;;;;;;;5141990;27;20058;-61
2022/12/18 14:10:46;;;;;;;6.93;4.07;;;;;;;;;;5131055;27;20073;-60
2022/12/18 14:13:16;;;;;;;5.65;4.10;;;;;;;;;;5129237;27;20046;-60
2022/12/18 14:15:44;;;;;;;5.55;3.80;;;;;;;;;;5135927;27;20043;-60
2022/12/18 14:18:18;;;;;;;5.80;4.20;;;;;;;;;;5148991;27;20497;-60
2022/12/18 14:20:47;;;;;;;5.38;4.05;;;;;;;;;;5144008;27;20493;-60
2022/12/18 14:23:32;;;;;;;4.22;3.10;;;;;;;;;;5128057;27;20043;-59
2022/12/18 14:26:00;;;;;;;5.32;3.75;;;;;;;;;;5127869;27;20390;-60
2022/12/18 14:28:26;;;;;;;4.38;3.42;;;;;;;;;;5126651;27;20074;-59
2022/12/18 14:30:52;;;;;;;4.60;3.55;;;;;;;;;;5127921;27;20047;-60
2022/12/18 14:33:20;;;;;;;5.00;3.25;;;;;;;;;;5142593;27;20555;-60
2022/12/18 14:36:00;;;;;;;5.63;3.97;;;;;;;;;;5140517;27;20443;-60
2022/12/18 14:38:41;;;;;;;5.63;3.72;;;;;;;;;;5115184;27;20130;-59
2022/12/18 14:41:12;;;;;;;5.10;3.83;;;;;;;;;;5138608;27;20661;-60
2022/12/18 14:43:39;;;;;;;5.65;3.95;;;;;;;;;;5145490;27;20437;-60
2022/12/18 14:46:06;;;;;;;5.53;4.07;;;;;;;;;;5144718;27;20060;-60
2022/12/18 14:48:42;;;;;;;4.45;3.60;;;;;;;;;;5138383;27;20520;-60
2022/12/18 14:51:19;;;;;;;4.45;3.47;;;;;;;;;;5143158;27;20051;-60
2022/12/18 14:53:47;;;;;;;7.30;5.28;;;;;;;;;;5144680;27;20114;-59
2022/12/18 14:56:17;;;;;;;7.63;4.68;;;;;;;;;;5143941;27;20046;-60
2022/12/18 14:58:47;;;;;;;6.13;4.07;;;;;;;;;;5141468;27;20050;-60